Time;durP1;ratioP1;P1;durP2;ratioP2;P2;SDS_P1;SDS_P2;PMS_P1;PMS_P2;Temp;Humidity;BMP_temperature;BMP_pressure;BME280_temperature;BME280_humidity;BME280_pressure;Samples;Min_cycle;Max_cycle;Signal;HPM_P1;HPM_P2
2023/03/13 00:00:28;;;;;;;;;;;10.10;1.00;;;;;;5094412;28;19912;-81
2023/03/13 00:02:54;;;;;;;;;;;10.10;1.00;;;;;;5093890;28;20058;-81
2023/03/13 00:05:19;;;;;;;;;;;10.10;1.00;;;;;;5093929;28;19974;-78
2023/03/13 00:07:46;;;;;;;;;;;10.10;1.00;;;;;;5074869;28;19915;-79
2023/03/13 00:10:12;;;;;;;;;;;10.20;1.00;;;;;;5075901;28;19931;-79
2023/03/13 00:12:37;;;;;;;;;;;10.20;1.00;;;;;;5079606;28;20367;-79
2023/03/13 00:15:16;;;;;;;;;;;10.20;1.00;;;;;;5068008;28;20274;-80
2023/03/13 00:17:52;;;;;;;;;;;10.20;1.00;;;;;;5093872;28;19912;-79
2023/03/13 00:20:28;;;;;;;;;;;10.20;1.00;;;;;;5075913;28;19919;-79
2023/03/13 00:22:54;;;;;;;;;;;10.20;1.00;;;;;;5093845;28;20418;-79
2023/03/13 00:25:19;;;;;;;;;;;10.20;1.00;;;;;;5092337;28;19996;-80
2023/03/13 00:27:46;;;;;;;;;;;10.20;1.00;;;;;;5084748;28;20287;-80
2023/03/13 00:30:28;;;;;;;;;;;10.20;1.00;;;;;;5064821;28;19908;-79
2023/03/13 00:33:04;;;;;;;;;;;10.20;1.00;;;;;;5089994;28;20003;-79
2023/03/13 00:35:34;;;;;;;;;;;10.20;1.00;;;;;;5098191;28;19912;-79
2023/03/13 00:41:04;;;;;;;;;;;10.20;1.00;;;;;;5097030;28;19995;-79
2023/03/13 00:43:52;;;;;;;;;;;10.20;1.00;;;;;;5094981;28;19965;-79
2023/03/13 00:46:34;;;;;;;;;;;10.20;1.00;;;;;;5085731;28;20318;-79
2023/03/13 00:49:00;;;;;;;;;;;10.20;1.00;;;;;;5098399;28;20009;-79
2023/03/13 00:51:28;;;;;;;;;;;10.20;1.00;;;;;;5079124;28;20362;-81
2023/03/13 01:00:00;;;;;;;;;;;10.20;1.00;;;;;;5078041;28;19916;-81
2023/03/13 01:02:39;;;;;;;;;;;10.20;1.00;;;;;;5086140;28;19908;-81
2023/03/13 01:05:22;;;;;;;;;;;10.30;1.00;;;;;;5080650;28;20341;-80
2023/03/13 01:07:52;;;;;;;;;;;10.30;1.00;;;;;;5078790;28;19913;-79
2023/03/13 01:10:22;;;;;;;;;;;10.30;1.00;;;;;;5093747;28;19919;-79
2023/03/13 01:12:58;;;;;;;;;;;10.30;1.00;;;;;;5077970;28;19908;-79
2023/03/13 01:15:46;;;;;;;;;;;10.30;1.00;;;;;;5070401;28;19908;-80
2023/03/13 01:18:18;;;;;;;;;;;10.30;1.00;;;;;;5096832;28;19908;-79
2023/03/13 01:20:52;;;;;;;;;;;10.30;1.00;;;;;;5091737;28;20023;-80
2023/03/13 01:23:28;;;;;;;;;;;10.30;1.00;;;;;;5096845;28;19919;-79
2023/03/13 01:28:48;;;;;;;;;;;10.40;1.00;;;;;;5096986;28;19966;-79
2023/03/13 01:31:22;;;;;;;;;;;10.50;1.00;;;;;;5096858;28;20517;-79
2023/03/13 01:33:53;;;;;;;;;;;10.50;1.00;;;;;;5087407;28;19913;-79
2023/03/13 01:36:40;;;;;;;;;;;10.60;1.00;;;;;;5087548;28;19991;-80
2023/03/13 01:39:22;;;;;;;;;;;10.60;1.00;;;;;;5090308;28;19954;-79
2023/03/13 01:41:58;;;;;;;;;;;10.70;1.00;;;;;;5067059;28;20010;-79
2023/03/13 01:44:25;;;;;;;;;;;10.60;1.00;;;;;;5082580;28;19912;-79
2023/03/13 01:46:50;;;;;;;;;;;10.60;1.00;;;;;;5096781;28;20372;-79
2023/03/13 01:49:19;;;;;;;;;;;10.70;1.00;;;;;;5096110;28;19917;-79
2023/03/13 01:51:48;;;;;;;;;;;10.70;1.00;;;;;;5081095;28;20283;-80
2023/03/13 01:54:22;;;;;;;;;;;10.80;1.00;;;;;;5076356;28;19917;-81
2023/03/13 01:57:16;;;;;;;;;;;10.80;1.00;;;;;;5095954;28;19908;-80
2023/03/13 01:59:54;;;;;;;;;;;10.80;1.00;;;;;;5087391;28;19916;-80
2023/03/13 02:05:41;;;;;;;;;;;10.90;1.00;;;;;;5090799;28;19920;-81
2023/03/13 02:11:14;;;;;;;;;;;10.90;1.00;;;;;;5095728;28;20006;-79
2023/03/13 02:13:58;;;;;;;;;;;11.00;1.00;;;;;;5093643;28;19991;-80
2023/03/13 02:16:28;;;;;;;;;;;11.10;1.00;;;;;;5096049;28;19918;-80
2023/03/13 02:19:16;;;;;;;;;;;11.00;1.00;;;;;;5084694;28;20355;-80
2023/03/13 02:22:16;;;;;;;;;;;11.10;1.00;;;;;;5074050;28;19919;-79
2023/03/13 02:24:51;;;;;;;;;;;11.10;1.00;;;;;;5095808;28;20005;-79
2023/03/13 02:27:40;;;;;;;;;;;11.20;1.00;;;;;;5096355;28;19908;-80
2023/03/13 02:30:16;;;;;;;;;;;11.20;1.00;;;;;;5075691;28;19916;-80
2023/03/13 02:32:42;;;;;;;;;;;11.20;1.00;;;;;;5092572;28;19912;-79
2023/03/13 02:35:09;;;;;;;;;;;11.20;1.00;;;;;;5088908;28;19965;-79
2023/03/13 02:37:48;;;;;;;;;;;11.00;1.00;;;;;;5091338;28;19918;-79
2023/03/13 02:40:42;;;;;;;;;;;11.00;1.00;;;;;;5083964;28;19908;-80
2023/03/13 02:43:13;;;;;;;;;;;11.00;1.00;;;;;;5093018;28;20294;-79
2023/03/13 02:46:06;;;;;;;;;;;10.90;1.00;;;;;;5088148;28;20360;-79
2023/03/13 02:48:39;;;;;;;;;;;10.90;1.00;;;;;;5070169;28;19912;-79
2023/03/13 02:51:42;;;;;;;;;;;10.90;1.00;;;;;;5089616;28;19916;-80
2023/03/13 02:54:20;;;;;;;;;;;10.90;1.00;;;;;;5032202;28;20440;-81
2023/03/13 02:56:47;;;;;;;;;;;10.80;1.00;;;;;;5033227;28;19955;-80
2023/03/13 02:59:16;;;;;;;;;;;10.90;1.00;;;;;;5032993;28;19909;-81
2023/03/13 03:01:53;;;;;;;;;;;10.90;1.00;;;;;;5033288;28;19909;-80
2023/03/13 03:07:21;;;;;;;;;;;10.70;1.00;;;;;;5047903;28;20379;-80
2023/03/13 03:10:04;;;;;;;;;;;10.60;1.00;;;;;;5032569;28;20011;-80
2023/03/13 03:12:34;;;;;;;;;;;10.50;1.00;;;;;;5024202;28;19975;-80
2023/03/13 03:15:34;;;;;;;;;;;10.50;1.00;;;;;;5028036;28;19919;-80
2023/03/13 03:18:10;;;;;;;;;;;10.40;1.00;;;;;;5016016;28;19913;-80
2023/03/13 03:20:52;;;;;;;;;;;10.40;1.00;;;;;;5032940;28;20391;-80
2023/03/13 03:23:22;;;;;;;;;;;10.50;1.00;;;;;;5012904;28;19960;-79
2023/03/13 03:25:58;;;;;;;;;;;10.40;1.00;;;;;;5022898;28;19953;-79
2023/03/13 03:28:40;;;;;;;;;;;10.50;1.00;;;;;;5044748;28;19931;-79
2023/03/13 03:31:16;;;;;;;;;;;10.50;1.00;;;;;;5078044;28;19923;-79
2023/03/13 03:33:52;;;;;;;;;;;10.30;1.00;;;;;;5083039;28;19959;-78
2023/03/13 03:36:41;;;;;;;;;;;10.40;1.00;;;;;;5107743;28;20363;-79
2023/03/13 03:39:10;;;;;;;;;;;10.30;1.00;;;;;;5094856;28;19912;-80
2023/03/13 03:41:40;;;;;;;;;;;10.40;1.00;;;;;;5094184;28;19912;-79
2023/03/13 03:44:16;;;;;;;;;;;10.30;1.00;;;;;;5080683;28;19922;-79
2023/03/13 03:46:47;;;;;;;;;;;10.20;1.00;;;;;;5091542;28;19927;-79
2023/03/13 03:49:12;;;;;;;;;;;10.20;1.00;;;;;;5072999;28;19916;-79
2023/03/13 03:51:40;;;;;;;;;;;10.10;1.00;;;;;;5092546;28;19935;-80
2023/03/13 03:54:28;;;;;;;;;;;10.10;1.00;;;;;;5079401;28;19920;-80
2023/03/13 03:59:56;;;;;;;;;;;10.10;1.00;;;;;;5091610;28;19933;-80
2023/03/13 04:02:52;;;;;;;;;;;10.10;1.00;;;;;;5093785;28;20007;-80
2023/03/13 04:05:46;;;;;;;;;;;10.20;1.00;;;;;;5065713;28;19909;-80
2023/03/13 04:08:16;;;;;;;;;;;10.20;1.00;;;;;;5076620;28;19939;-79
2023/03/13 04:10:59;;;;;;;;;;;10.00;1.00;;;;;;5098157;28;19943;-79
2023/03/13 04:13:28;;;;;;;;;;;10.00;1.00;;;;;;5086520;28;19908;-79
2023/03/13 04:15:54;;;;;;;;;;;10.00;1.00;;;;;;5083146;28;19915;-79
2023/03/13 04:18:28;;;;;;;;;;;10.00;1.00;;;;;;5094328;28;19912;-79
2023/03/13 04:21:05;;;;;;;;;;;10.00;1.10;;;;;;5094330;28;19912;-79
2023/03/13 04:23:34;;;;;;;;;;;10.00;3.50;;;;;;5087084;28;19947;-79
2023/03/13 04:26:16;;;;;;;;;;;10.00;1.70;;;;;;5086832;28;19908;-79
2023/03/13 04:28:42;;;;;;;;;;;10.00;3.30;;;;;;5072734;28;19913;-79
2023/03/13 04:31:16;;;;;;;;;;;10.10;5.00;;;;;;5067438;28;19923;-79
2023/03/13 04:33:42;;;;;;;;;;;10.00;4.30;;;;;;5085858;28;19958;-79
2023/03/13 04:36:07;;;;;;;;;;;10.00;5.60;;;;;;5089273;28;19920;-79
2023/03/13 04:39:04;;;;;;;;;;;10.10;8.40;;;;;;5094192;28;20318;-79
2023/03/13 04:41:58;;;;;;;;;;;10.10;8.00;;;;;;5083287;28;19952;-79
2023/03/13 04:44:40;;;;;;;;;;;10.00;10.40;;;;;;5082774;28;19923;-79
2023/03/13 04:47:22;;;;;;;;;;;10.10;10.50;;;;;;5093171;28;19916;-79
2023/03/13 04:49:52;;;;;;;;;;;10.10;12.50;;;;;;5072802;28;20066;-79
2023/03/13 04:52:22;;;;;;;;;;;10.10;13.30;;;;;;5076223;28;19913;-79
2023/03/13 04:54:49;;;;;;;;;;;10.20;15.30;;;;;;5079805;28;19916;-79
2023/03/13 04:57:52;;;;;;;;;;;10.20;16.00;;;;;;5086465;28;19916;-79
2023/03/13 05:00:22;;;;;;;;;;;10.20;18.40;;;;;;5062449;28;19916;-79
2023/03/13 05:02:58;;;;;;;;;;;10.20;20.20;;;;;;5066316;28;19919;-79
2023/03/13 05:05:34;;;;;;;;;;;10.30;19.60;;;;;;5098820;28;19916;-79
2023/03/13 05:08:10;;;;;;;;;;;10.30;26.00;;;;;;5090948;28;19908;-80
2023/03/13 05:10:46;;;;;;;;;;;10.30;31.10;;;;;;5093183;28;19912;-80
2023/03/13 05:13:34;;;;;;;;;;;10.30;34.40;;;;;;5086994;28;19908;-80
2023/03/13 05:16:10;;;;;;;;;;;10.30;41.90;;;;;;5080151;28;19912;-80
2023/03/13 05:18:36;;;;;;;;;;;10.40;42.20;;;;;;5091814;28;19915;-80
2023/03/13 05:21:02;;;;;;;;;;;10.40;42.10;;;;;;5087332;28;19923;-80
2023/03/13 05:23:28;;;;;;;;;;;10.40;42.20;;;;;;5097261;28;20403;-80
2023/03/13 05:25:58;;;;;;;;;;;10.50;42.30;;;;;;5068315;28;20011;-81
2023/03/13 05:28:40;;;;;;;;;;;10.50;42.30;;;;;;5097963;28;19915;-81
2023/03/13 05:31:06;;;;;;;;;;;10.50;42.30;;;;;;5099687;28;19922;-81
2023/03/13 05:33:34;;;;;;;;;;;10.50;42.30;;;;;;5102409;28;19908;-81
2023/03/13 05:36:10;;;;;;;;;;;10.50;42.50;;;;;;5082780;28;19920;-81
2023/03/13 05:38:46;;;;;;;;;;;10.60;42.60;;;;;;5089744;28;19955;-80
2023/03/13 05:41:12;;;;;;;;;;;10.60;42.60;;;;;;5101800;28;19998;-82
2023/03/13 05:43:40;;;;;;;;;;;10.60;42.40;;;;;;5083213;28;19944;-82
2023/03/13 05:46:06;;;;;;;;;;;10.60;42.40;;;;;;5077702;28;19920;-79
2023/03/13 05:48:40;;;;;;;;;;;10.60;42.50;;;;;;5091031;28;19917;-81
2023/03/13 05:51:22;;;;;;;;;;;10.60;51.50;;;;;;5100147;28;19970;-87
2023/03/13 05:53:58;;;;;;;;;;;10.70;57.20;;;;;;5108486;28;19924;-88
2023/03/13 06:02:30;;;;;;;;;;;10.70;58.00;;;;;;5096177;28;20287;-87
2023/03/13 06:17:34;;;;;;;;;;;10.80;69.10;;;;;;5081210;28;19969;-91
2023/03/13 06:26:05;;;;;;;;;;;10.90;67.70;;;;;;5076726;28;19920;-88
2023/03/13 06:31:34;;;;;;;;;;;10.90;68.60;;;;;;5109023;28;19934;-88
2023/03/13 06:37:02;;;;;;;;;;;11.00;64.90;;;;;;5093998;28;19915;-87
2023/03/13 06:39:58;;;;;;;;;;;11.00;68.70;;;;;;5074598;28;19944;-87
2023/03/13 06:42:58;;;;;;;;;;;11.00;69.50;;;;;;5065860;28;19908;-87
2023/03/13 06:45:24;;;;;;;;;;;11.00;68.20;;;;;;5075008;28;19908;-87
2023/03/13 06:47:58;;;;;;;;;;;11.10;68.00;;;;;;5091738;28;20245;-85
2023/03/13 06:50:24;;;;;;;;;;;11.10;70.10;;;;;;5065182;28;19916;-79
2023/03/13 06:52:53;;;;;;;;;;;11.10;69.50;;;;;;5081716;28;19947;-79
2023/03/13 06:55:34;;;;;;;;;;;11.10;69.30;;;;;;5070349;28;19917;-79
2023/03/13 06:58:17;;;;;;;;;;;11.20;72.10;;;;;;5083758;28;19919;-79
2023/03/13 07:00:43;;;;;;;;;;;11.30;69.20;;;;;;5087771;28;20003;-79
2023/03/13 07:03:16;;;;;;;;;;;11.30;63.50;;;;;;5095047;28;20503;-79
2023/03/13 07:05:46;;;;;;;;;;;11.40;59.40;;;;;;5095034;28;19909;-79
2023/03/13 07:08:12;;;;;;;;;;;11.50;51.00;;;;;;5094918;28;19908;-79
2023/03/13 07:10:53;;;;;;;;;;;11.50;43.50;;;;;;5094244;28;19965;-79
2023/03/13 07:13:20;;;;;;;;;;;11.60;43.30;;;;;;5084300;28;19912;-78
2023/03/13 07:15:52;;;;;;;;;;;11.70;43.50;;;;;;5069437;28;19916;-79
2023/03/13 07:18:40;;;;;;;;;;;11.60;43.30;;;;;;5103029;28;19919;-79
2023/03/13 07:21:10;;;;;;;;;;;11.70;47.60;;;;;;5074977;28;19912;-80
2023/03/13 07:24:04;;;;;;;;;;;11.70;43.40;;;;;;5090036;28;19919;-79
2023/03/13 07:26:34;;;;;;;;;;;11.80;43.50;;;;;;5084640;28;19908;-79
2023/03/13 07:29:00;;;;;;;;;;;11.90;43.60;;;;;;5057792;28;19913;-78
2023/03/13 07:31:40;;;;;;;;;;;11.90;43.60;;;;;;5093388;28;19927;-79
2023/03/13 07:34:22;;;;;;;;;;;12.00;43.70;;;;;;5082544;28;19912;-78
2023/03/13 07:36:48;;;;;;;;;;;12.00;43.80;;;;;;5091866;28;19952;-78
2023/03/13 07:39:13;;;;;;;;;;;12.10;43.80;;;;;;5092973;28;20267;-78
2023/03/13 07:44:42;;;;;;;;;;;12.30;31.80;;;;;;5093760;28;19957;-81
2023/03/13 07:47:16;;;;;;;;;;;12.30;27.70;;;;;;5080883;28;19924;-81
2023/03/13 07:49:58;;;;;;;;;;;12.30;29.90;;;;;;5066626;28;19961;-79
2023/03/13 07:52:25;;;;;;;;;;;12.40;21.10;;;;;;5075665;28;19916;-80
2023/03/13 07:54:53;;;;;;;;;;;12.40;19.30;;;;;;5088823;28;19941;-82
2023/03/13 07:57:46;;;;;;;;;;;12.50;20.10;;;;;;5091068;28;19995;-81
2023/03/13 08:00:46;;;;;;;;;;;12.40;19.60;;;;;;5061703;28;20046;-82
2023/03/13 08:03:16;;;;;;;;;;;12.50;19.20;;;;;;5091728;28;19912;-82
2023/03/13 08:06:13;;;;;;;;;;;12.50;17.30;;;;;;5093157;28;19908;-82
2023/03/13 08:08:58;;;;;;;;;;;12.50;18.00;;;;;;5019721;28;19910;-82
2023/03/13 08:17:46;;;;;;;;;;;12.70;11.40;;;;;;5024176;28;19909;-81
2023/03/13 08:20:22;;;;;;;;;;;12.80;11.30;;;;;;5015632;28;19917;-80
2023/03/13 08:22:58;;;;;;;;;;;12.80;10.00;;;;;;5031529;28;19909;-81
2023/03/13 08:25:24;;;;;;;;;;;13.00;4.30;;;;;;5028049;28;19963;-81
2023/03/13 08:27:58;;;;;;;;;;;13.10;1.70;;;;;;5024534;28;19998;-80
2023/03/13 08:30:24;;;;;;;;;;;13.30;1.00;;;;;;5021695;28;19921;-81
2023/03/13 08:33:04;;;;;;;;;;;13.30;1.00;;;;;;5033270;28;19912;-82
2023/03/13 08:35:40;;;;;;;;;;;13.40;1.00;;;;;;5028708;28;19913;-81
2023/03/13 08:38:07;;;;;;;;;;;13.50;1.00;;;;;;5026165;28;19928;-80
2023/03/13 08:41:04;;;;;;;;;;;13.50;1.00;;;;;;5031219;28;20261;-80
2023/03/13 08:46:48;;;;;;;;;;;13.80;1.00;;;;;;5081465;28;19916;-81
2023/03/13 08:49:34;;;;;;;;;;;14.00;1.00;;;;;;5077304;28;19916;-81
2023/03/13 08:52:00;;;;;;;;;;;14.00;1.00;;;;;;5082393;28;19916;-82
2023/03/13 08:54:34;;;;;;;;;;;14.10;1.00;;;;;;5091254;28;20409;-82
2023/03/13 08:57:10;;;;;;;;;;;14.10;1.00;;;;;;5068409;28;19957;-81
2023/03/13 08:59:36;;;;;;;;;;;14.10;1.00;;;;;;5097139;28;19912;-81
2023/03/13 09:02:04;;;;;;;;;;;14.30;1.00;;;;;;5079372;28;19912;-82
2023/03/13 09:04:30;;;;;;;;;;;14.30;1.00;;;;;;5082164;28;20275;-80
2023/03/13 09:06:58;;;;;;;;;;;14.20;1.00;;;;;;5090005;28;19912;-81
2023/03/13 09:09:24;;;;;;;;;;;14.20;1.00;;;;;;5096421;28;19908;-82
2023/03/13 09:12:04;;;;;;;;;;;14.10;1.00;;;;;;5088291;28;20248;-80
2023/03/13 09:14:52;;;;;;;;;;;14.00;1.00;;;;;;5104816;28;19948;-87
2023/03/13 09:20:20;;;;;;;;;;;14.10;1.00;;;;;;5099128;28;19958;-87
2023/03/13 09:28:52;;;;;;;;;;;14.30;1.00;;;;;;5097367;28;19952;-80
2023/03/13 09:31:20;;;;;;;;;;;14.40;1.00;;;;;;5082974;28;19916;-80
2023/03/13 09:34:04;;;;;;;;;;;14.30;1.00;;;;;;5081586;28;19912;-80
2023/03/13 09:36:34;;;;;;;;;;;14.50;1.00;;;;;;5096063;28;19996;-80
2023/03/13 09:39:10;;;;;;;;;;;14.30;1.00;;;;;;5085106;28;19920;-80
2023/03/13 09:41:45;;;;;;;;;;;14.40;1.00;;;;;;5093872;28;19919;-81
2023/03/13 09:44:40;;;;;;;;;;;14.40;1.00;;;;;;5073273;28;20387;-81
2023/03/13 09:47:22;;;;;;;;;;;14.50;1.00;;;;;;5091123;28;19969;-81
2023/03/13 09:50:00;;;;;;;;;;;14.50;1.00;;;;;;5078560;28;20351;-80
2023/03/13 09:52:31;;;;;;;;;;;14.60;1.00;;;;;;5077894;28;19924;-80
2023/03/13 09:55:28;;;;;;;;;;;14.60;1.00;;;;;;5095823;28;19957;-80
2023/03/13 09:58:28;;;;;;;;;;;14.70;1.00;;;;;;5097545;28;20006;-80
2023/03/13 10:00:59;;;;;;;;;;;14.70;1.00;;;;;;5078947;28;19909;-79
2023/03/13 10:03:39;;;;;;;;;;;14.70;1.00;;;;;;5075921;28;19915;-80
2023/03/13 10:06:14;;;;;;;;;;;14.70;1.00;;;;;;5075512;28;20371;-80
2023/03/13 10:08:46;;;;;;;;;;;14.80;1.00;;;;;;5094783;28;20241;-80
2023/03/13 10:11:34;;;;;;;;;;;14.80;1.00;;;;;;5096188;28;19970;-80
2023/03/13 10:14:29;;;;;;;;;;;14.90;1.00;;;;;;5095897;28;19915;-81
2023/03/13 10:17:02;;;;;;;;;;;14.90;1.00;;;;;;5069000;28;19908;-81
2023/03/13 10:19:52;;;;;;;;;;;14.90;1.00;;;;;;5077166;28;19912;-82
2023/03/13 10:22:25;;;;;;;;;;;15.10;1.00;;;;;;5086893;28;20015;-81
2023/03/13 10:28:12;;;;;;;;;;;15.10;1.00;;;;;;5090990;28;20370;-81
2023/03/13 10:30:53;;;;;;;;;;;15.20;1.00;;;;;;5091399;28;19915;-82
2023/03/13 10:33:26;;;;;;;;;;;15.00;1.00;;;;;;5067024;28;20335;-82
2023/03/13 10:36:00;;;;;;;;;;;15.20;1.00;;;;;;5098692;28;20290;-82
2023/03/13 10:38:46;;;;;;;;;;;15.20;1.00;;;;;;5070414;28;19916;-82
2023/03/13 10:41:40;;;;;;;;;;;15.20;1.00;;;;;;5075961;28;19912;-81
2023/03/13 10:44:40;;;;;;;;;;;15.30;1.00;;;;;;5092179;28;19920;-81
2023/03/13 10:47:08;;;;;;;;;;;15.20;1.00;;;;;;5090503;28;19925;-81
2023/03/13 10:49:45;;;;;;;;;;;15.20;1.00;;;;;;5077102;28;19916;-81
2023/03/13 10:52:34;;;;;;;;;;;15.30;1.00;;;;;;5090503;28;20015;-81
2023/03/13 10:58:19;;;;;;;;;;;15.80;1.00;;;;;;5088980;28;19931;-81
2023/03/13 11:01:07;;;;;;;;;;;16.10;1.00;;;;;;5064175;28;20367;-81
2023/03/13 11:03:52;;;;;;;;;;;16.40;1.00;;;;;;5070356;28;19912;-82
2023/03/13 11:06:40;;;;;;;;;;;16.60;1.00;;;;;;5094393;28;20270;-81
2023/03/13 11:09:29;;;;;;;;;;;16.60;1.00;;;;;;5071486;28;19912;-81
2023/03/13 11:12:03;;;;;;;;;;;16.40;1.00;;;;;;5091532;28;19999;-81
2023/03/13 11:14:35;;;;;;;;;;;16.40;1.00;;;;;;5086500;28;20382;-82
2023/03/13 11:17:31;;;;;;;;;;;16.60;1.00;;;;;;5095285;28;19915;-82
2023/03/13 11:20:16;;;;;;;;;;;16.60;1.00;;;;;;5013119;28;19920;-81
2023/03/13 11:23:16;;;;;;;;;;;16.40;1.00;;;;;;4997631;28;19961;-81
2023/03/13 11:25:47;;;;;;;;;;;16.10;1.00;;;;;;5012471;28;19956;-80
2023/03/13 11:31:21;;;;;;;;;;;16.00;1.00;;;;;;5012404;28;19996;-81
2023/03/13 11:33:59;;;;;;;;;;;16.10;1.00;;;;;;4996036;28;19918;-80
2023/03/13 11:36:41;;;;;;;;;;;16.10;1.00;;;;;;5013137;28;19913;-80
2023/03/13 11:39:10;;;;;;;;;;;16.00;1.00;;;;;;5012256;28;20304;-80
2023/03/13 11:41:59;;;;;;;;;;;15.90;1.00;;;;;;5011082;28;20130;-80
2023/03/13 11:44:45;;;;;;;;;;;15.80;1.00;;;;;;5011078;28;20033;-82
2023/03/13 11:47:13;;;;;;;;;;;15.90;1.00;;;;;;4995067;28;19914;-82
2023/03/13 11:50:10;;;;;;;;;;;16.00;1.00;;;;;;5009837;28;20036;-82
2023/03/13 11:52:47;;;;;;;;;;;16.00;1.00;;;;;;5010921;28;19917;-81
2023/03/13 11:55:28;;;;;;;;;;;16.00;1.00;;;;;;5005018;28;20399;-81
2023/03/13 11:58:20;;;;;;;;;;;15.90;1.00;;;;;;5071534;28;20345;-81
2023/03/13 12:01:19;;;;;;;;;;;15.90;1.00;;;;;;5088300;28;19923;-81
2023/03/13 12:04:10;;;;;;;;;;;16.00;1.00;;;;;;5015337;28;19914;-81
2023/03/13 12:06:48;;;;;;;;;;;16.00;1.00;;;;;;5030380;28;19924;-81
2023/03/13 12:09:17;;;;;;;;;;;16.30;1.00;;;;;;5015329;28;19967;-80
2023/03/13 12:12:07;;;;;;;;;;;16.40;1.00;;;;;;5030060;28;19982;-82
2023/03/13 12:14:36;;;;;;;;;;;16.40;1.00;;;;;;4992500;28;20287;-81
2023/03/13 12:17:27;;;;;;;;;;;16.60;1.00;;;;;;4992473;28;20277;-81
2023/03/13 12:20:08;;;;;;;;;;;16.60;1.00;;;;;;4988789;28;19980;-81
2023/03/13 12:25:42;;;;;;;;;;;17.00;1.00;;;;;;4991599;28;19952;-82
2023/03/13 12:28:07;;;;;;;;;;;16.90;1.00;;;;;;4991552;28;20344;-81
2023/03/13 12:30:41;;;;;;;;;;;16.80;1.00;;;;;;4990879;28;19997;-81
2023/03/13 12:33:11;;;;;;;;;;;16.70;1.00;;;;;;4992306;28;20015;-81
2023/03/13 12:38:47;;;;;;;;;;;16.60;1.00;;;;;;5000756;28;20449;-80
2023/03/13 12:41:35;;;;;;;;;;;16.60;1.00;;;;;;5015959;28;19959;-82
2023/03/13 12:44:00;;;;;;;;;;;16.50;1.00;;;;;;5015522;28;19916;-80
2023/03/13 12:46:47;;;;;;;;;;;16.50;1.00;;;;;;5029162;28;20346;-81
2023/03/13 12:49:13;;;;;;;;;;;16.50;1.00;;;;;;5027363;28;20325;-81
2023/03/13 12:54:41;;;;;;;;;;;16.50;1.00;;;;;;5089516;28;19931;-81
2023/03/13 12:57:11;;;;;;;;;;;16.50;1.00;;;;;;5071206;28;19916;-81
2023/03/13 12:59:58;;;;;;;;;;;16.40;1.00;;;;;;5075443;28;19970;-81
2023/03/13 13:02:29;;;;;;;;;;;16.40;1.00;;;;;;5085389;28;19909;-80
2023/03/13 13:05:05;;;;;;;;;;;16.60;1.00;;;;;;5081710;28;19912;-80
2023/03/13 13:07:52;;;;;;;;;;;16.40;1.00;;;;;;5093592;28;19915;-82
2023/03/13 13:10:21;;;;;;;;;;;16.30;1.00;;;;;;5090174;28;19916;-81
2023/03/13 13:13:07;;;;;;;;;;;16.30;1.00;;;;;;5085525;28;19923;-82
2023/03/13 13:15:52;;;;;;;;;;;16.20;1.00;;;;;;5065251;28;20256;-81
2023/03/13 13:21:25;;;;;;;;;;;16.30;1.00;;;;;;5083053;28;20410;-82
2023/03/13 13:23:55;;;;;;;;;;;16.60;1.00;;;;;;5071571;28;20282;-82
2023/03/13 13:26:29;;;;;;;;;;;17.00;1.00;;;;;;5081962;28;19912;-82
2023/03/13 13:29:17;;;;;;;;;;;17.40;1.00;;;;;;5091247;28;19999;-81
2023/03/13 13:32:00;;;;;;;;;;;17.60;1.00;;;;;;5076093;28;19923;-86
2023/03/13 13:37:29;;;;;;;;;;;18.30;1.00;;;;;;5082857;28;20015;-86
2023/03/13 13:40:23;;;;;;;;;;;18.70;1.00;;;;;;5077491;28;19952;-85
2023/03/13 13:43:03;;;;;;;;;;;18.90;1.00;;;;;;5095464;28;19912;-86
2023/03/13 13:45:53;;;;;;;;;;;19.40;1.00;;;;;;5073739;28;19916;-81
2023/03/13 13:48:38;;;;;;;;;;;19.60;1.00;;;;;;5078357;28;20015;-80
2023/03/13 13:51:31;;;;;;;;;;;19.80;1.00;;;;;;5077509;28;20015;-84
2023/03/13 13:57:05;;;;;;;;;;;19.60;1.00;;;;;;5088857;28;20021;-83
2023/03/13 13:59:58;;;;;;;;;;;19.40;1.00;;;;;;5078614;28;20264;-83
2023/03/13 14:03:01;;;;;;;;;;;19.10;1.00;;;;;;5094194;28;19912;-83
2023/03/13 14:05:47;;;;;;;;;;;19.30;1.00;;;;;;5022473;28;20284;-83
2023/03/13 14:08:29;;;;;;;;;;;19.40;1.00;;;;;;5034430;28;20304;-84
2023/03/13 14:11:20;;;;;;;;;;;19.20;1.00;;;;;;5030280;28;19913;-80
2023/03/13 14:14:11;;;;;;;;;;;19.00;1.00;;;;;;5031294;28;20000;-86
2023/03/13 14:19:41;;;;;;;;;;;18.90;1.00;;;;;;5033989;28;19964;-84
2023/03/13 14:22:17;;;;;;;;;;;18.90;1.00;;;;;;5030632;28;20352;-78
2023/03/13 14:25:01;;;;;;;;;;;18.70;1.00;;;;;;5033086;28;19913;-78
2023/03/13 14:27:27;;;;;;;;;;;18.70;1.00;;;;;;5033913;28;20404;-80
2023/03/13 14:30:03;;;;;;;;;;;18.80;1.00;;;;;;5033586;28;19999;-79
2023/03/13 14:32:47;;;;;;;;;;;18.80;1.00;;;;;;5034315;28;19956;-81
2023/03/13 14:35:35;;;;;;;;;;;18.80;1.00;;;;;;5033438;28;20276;-81
2023/03/13 14:41:23;;;;;;;;;;;18.90;1.00;;;;;;5075597;28;19954;-82
2023/03/13 14:44:10;;;;;;;;;;;18.90;1.00;;;;;;5075598;28;19915;-82
2023/03/13 14:46:47;;;;;;;;;;;18.90;1.00;;;;;;5064135;28;19923;-79
2023/03/13 14:49:41;;;;;;;;;;;19.00;1.00;;;;;;5076911;28;19951;-91
2023/03/13 14:52:22;;;;;;;;;;;19.10;1.00;;;;;;5092005;28;19924;-84
2023/03/13 14:57:55;;;;;;;;;;;19.00;1.00;;;;;;5088887;28;20430;-87
2023/03/13 15:18:33;;;;;;;;;;;18.20;1.00;;;;;;5098710;28;19915;-83
2023/03/13 15:24:11;;;;;;;;;;;18.20;1.00;;;;;;5085063;28;19915;-84
2023/03/13 15:29:41;;;;;;;;;;;17.60;1.00;;;;;;5090866;28;19957;-81
2023/03/13 15:32:15;;;;;;;;;;;16.80;1.00;;;;;;5093931;28;19927;-78
2023/03/13 15:34:41;;;;;;;;;;;15.70;1.00;;;;;;5094920;28;19908;-81
2023/03/13 15:37:41;;;;;;;;;;;14.90;1.00;;;;;;5083522;28;20015;-81
2023/03/13 15:40:14;;;;;;;;;;;14.00;1.00;;;;;;5073713;28;19916;-81
2023/03/13 15:42:47;;;;;;;;;;;13.40;1.00;;;;;;5082713;28;19915;-81
2023/03/13 15:45:35;;;;;;;;;;;13.30;1.00;;;;;;5080401;28;19908;-80
2023/03/13 15:54:07;;;;;;;;;;;12.80;8.20;;;;;;5090376;28;20017;-86
2023/03/13 15:59:35;;;;;;;;;;;12.60;23.90;;;;;;5074559;28;19923;-86
2023/03/13 16:02:13;;;;;;;;;;;12.60;44.30;;;;;;5088693;28;19907;-80
2023/03/13 16:04:41;;;;;;;;;;;12.60;44.20;;;;;;5093974;28;19935;-80
2023/03/13 16:07:12;;;;;;;;;;;12.60;44.40;;;;;;5094190;28;19916;-81
2023/03/13 16:09:47;;;;;;;;;;;12.60;44.30;;;;;;5071787;28;19912;-80
2023/03/13 16:12:29;;;;;;;;;;;12.60;54.30;;;;;;5075075;28;19921;-86
2023/03/13 16:14:54;;;;;;;;;;;12.60;62.00;;;;;;5062245;28;19908;-80
2023/03/13 16:17:47;;;;;;;;;;;12.60;62.90;;;;;;5094327;28;20320;-81
2023/03/13 16:20:17;;;;;;;;;;;12.50;69.60;;;;;;5090357;28;19916;-82
2023/03/13 16:23:17;;;;;;;;;;;12.50;75.90;;;;;;5075774;28;19913;-82
2023/03/13 16:25:47;;;;;;;;;;;12.50;77.00;;;;;;5065013;28;19908;-82
2023/03/13 16:28:17;;;;;;;;;;;12.60;80.00;;;;;;5093941;28;19947;-82
2023/03/13 16:30:43;;;;;;;;;;;12.60;79.70;;;;;;5084103;28;19912;-82
2023/03/13 16:33:11;;;;;;;;;;;12.60;83.50;;;;;;5072356;28;20023;-85
2023/03/13 16:35:41;;;;;;;;;;;12.60;80.30;;;;;;5076014;28;19915;-82
2023/03/13 16:41:14;;;;;;;;;;;12.50;79.50;;;;;;5086134;28;19966;-81
2023/03/13 16:43:53;;;;;;;;;;;12.50;81.20;;;;;;5083428;28;19912;-82
2023/03/13 16:46:26;;;;;;;;;;;12.60;79.30;;;;;;5061720;28;19947;-82
2023/03/13 16:48:55;;;;;;;;;;;12.50;77.00;;;;;;5094077;28;19958;-82
2023/03/13 16:51:47;;;;;;;;;;;12.50;71.60;;;;;;5067725;28;19955;-82
2023/03/13 16:54:12;;;;;;;;;;;12.40;72.40;;;;;;5074189;28;19908;-82
2023/03/13 16:57:01;;;;;;;;;;;12.40;72.40;;;;;;5076715;28;19912;-83
2023/03/13 16:59:27;;;;;;;;;;;12.30;76.00;;;;;;5090232;28;20295;-79
2023/03/13 17:01:53;;;;;;;;;;;12.30;76.70;;;;;;5084064;28;19908;-79
2023/03/13 17:04:18;;;;;;;;;;;12.30;76.00;;;;;;5086444;28;19914;-93
2023/03/13 17:12:50;;;;;;;;;;;12.40;80.50;;;;;;5097361;28;19923;-96
2023/03/13 17:15:24;;;;;;;;;;;12.40;76.00;;;;;;5081671;28;19908;-90
2023/03/13 17:20:53;;;;;;;;;;;12.30;77.50;;;;;;5088880;28;19962;-87
2023/03/13 17:26:47;;;;;;;;;;;12.30;79.60;;;;;;5089730;28;19919;-89
2023/03/13 17:32:29;;;;;;;;;;;12.30;82.40;;;;;;5077593;28;19919;-93
2023/03/13 17:41:00;;;;;;;;;;;12.30;81.30;;;;;;5086996;28;19920;-94
2023/03/13 17:43:53;;;;;;;;;;;12.40;79.90;;;;;;5079833;28;19916;-95
2023/03/13 17:46:49;;;;;;;;;;;12.40;79.00;;;;;;5079641;28;19908;-94
2023/03/13 17:52:35;;;;;;;;;;;12.40;73.30;;;;;;5097675;28;19920;-91
2023/03/13 17:58:03;;;;;;;;;;;12.40;72.40;;;;;;5096326;28;19955;-89
2023/03/13 18:03:53;;;;;;;;;;;12.30;81.00;;;;;;5091972;28;19924;-89
2023/03/13 18:09:22;;;;;;;;;;;12.20;90.50;;;;;;5081136;28;19923;-96
2023/03/13 18:11:59;;;;;;;;;;;12.20;92.40;;;;;;5075103;28;19983;-95
2023/03/13 18:17:28;;;;;;;;;;;12.30;92.30;;;;;;5082609;28;19915;-96
2023/03/13 18:20:13;;;;;;;;;;;12.30;91.70;;;;;;5074193;28;20294;-93
2023/03/13 18:25:41;;;;;;;;;;;12.20;96.30;;;;;;5087148;28;19915;-92
2023/03/13 18:34:14;;;;;;;;;;;12.30;99.90;;;;;;5089720;28;20346;-94
2023/03/13 18:36:39;;;;;;;;;;;12.40;99.90;;;;;;5079449;28;19908;-96